Eleoussa — 9HA3351 — position and weather

sailwx.info

Track history (hours):
 
Tides and Currents Weather Stations Pressure Air Temp Water Temp Dewpoint Dewpoint Depression Visibility Wind Speed Wind Dir Waves Ship Positions

Eleoussa

Last reported at 2018-Feb-19 13:25 UTC. Time now 2018-Feb-19 14:36 UTC.
Position N 54°50' E 015°53'.

Length 190 m; draft 12.4 m.

Type: Cargo ship. MMSI: 229462000.

Date/timePositionNaut miles runAvg speedWind from/ knotsBaromVisibWave heightAir tempDewpointWater temp
2018-Feb-19 13:25N 54°50' E 015°53'73 2.6
2018-Feb-18 08:44N 54°02' E 014°17'0 0.0
2018-Feb-18 08:23N 54°02' E 014°17'  
2018-Feb-10 22:35N 54°46' E 013°04'310.1
2018-Feb-10 22:16N 54°46' E 012°58'310.0
2018-Feb-10 22:00N 54°47' E 012°53'5 9.9
2018-Feb-10 21:30N 54°47' E 012°45'510.0
2018-Feb-10 21:00N 54°44' E 012°38'17 9.8
2018-Feb-10 19:17N 54°33' E 012°15'3 9.7
2018-Feb-10 19:00N 54°31' E 012°14'5 9.4
2018-Feb-10 18:30N 54°26' E 012°11'5 9.4
2018-Feb-10 18:00N 54°25' E 012°03'1110.4
2018-Feb-10 16:57N 54°25' E 011°45'1110.4
2018-Feb-10 15:55N 54°30' E 011°28'410.3
2018-Feb-10 15:30N 54°32' E 011°22'5 9.9
2018-Feb-10 15:00N 54°34' E 011°14'510.0
2018-Feb-10 14:30N 54°35' E 011°05'510.1
2018-Feb-10 14:00N 54°36' E 010°57'510.1
2018-Feb-10 13:31N 54°39' E 010°50'4 8.9
2018-Feb-10 13:00N 54°43' E 010°47'5 9.4
2018-Feb-10 12:30N 54°48' E 010°49'5 9.1
2018-Feb-10 12:01N 54°52' E 010°50'5 9.1
2018-Feb-10 11:31N 54°56' E 010°53'5 9.2
2018-Feb-10 11:01N 54°60' E 010°59'5 9.4
2018-Feb-10 10:31N 55°04' E 010°60'5 9.7
2018-Feb-10 10:00N 55°09' E 010°60'5 9.4
2018-Feb-10 09:30N 55°12' E 011°06'5 9.4
2018-Feb-10 09:00N 55°17' E 011°03'7 9.1
2018-Feb-10 08:17N 55°23' E 011°01'40 8.6
2018-Feb-10 03:38N 56°03' E 011°06'510.3
2018-Feb-10 03:11N 56°07' E 011°10'410.5
2018-Feb-10 02:50N 56°10' E 011°15'10 9.9
2018-Feb-10 01:49N 56°18' E 011°24'47 8.8
2018-Feb-09 20:30N 57°04' E 011°39'5 9.2
2018-Feb-09 20:00N 57°09' E 011°36'5 9.2
2018-Feb-09 19:30N 57°13' E 011°33'9 9.4
2018-Feb-09 18:31N 57°22' E 011°27'5 9.4
2018-Feb-09 18:01N 57°26' E 011°23'4 8.8
2018-Feb-09 17:30N 57°30' E 011°19'9 9.3
2018-Feb-09 16:31N 57°36' E 011°06'5 9.6
2018-Feb-09 16:01N 57°39' E 010°60'5 9.2
2018-Feb-09 15:31N 57°43' E 010°54'5 9.3
2018-Feb-09 15:00N 57°46' E 010°47'5 9.2
2018-Feb-09 14:30N 57°47' E 010°39'510.1
2018-Feb-09 14:00N 57°46' E 010°30'  
Track history (hours):
 
Tides and Currents Weather Stations Pressure Air Temp Water Temp Dewpoint Dewpoint Depression Visibility Wind Speed Wind Dir Waves Ship Positions

Eleoussa

Last reported at 2018-Feb-19 13:25 UTC. Time now 2018-Feb-19 14:36 UTC.
Position N 54°50' E 015°53'.

Length 190 m; draft 12.4 m.

Type: Cargo ship. MMSI: 229462000.

Date/timePositionNaut miles runAvg speedWind from/ knotsBaromVisibWave heightAir tempDewpointWater temp
2018-Feb-19 13:25N 54°50' E 015°53'73 2.6
2018-Feb-18 08:44N 54°02' E 014°17'0 0.0
2018-Feb-18 08:23N 54°02' E 014°17'  
2018-Feb-10 22:35N 54°46' E 013°04'310.1
2018-Feb-10 22:16N 54°46' E 012°58'310.0
2018-Feb-10 22:00N 54°47' E 012°53'5 9.9
2018-Feb-10 21:30N 54°47' E 012°45'510.0
2018-Feb-10 21:00N 54°44' E 012°38'17 9.8
2018-Feb-10 19:17N 54°33' E 012°15'3 9.7
2018-Feb-10 19:00N 54°31' E 012°14'5 9.4
2018-Feb-10 18:30N 54°26' E 012°11'5 9.4
2018-Feb-10 18:00N 54°25' E 012°03'1110.4
2018-Feb-10 16:57N 54°25' E 011°45'1110.4
2018-Feb-10 15:55N 54°30' E 011°28'410.3
2018-Feb-10 15:30N 54°32' E 011°22'5 9.9
2018-Feb-10 15:00N 54°34' E 011°14'510.0
2018-Feb-10 14:30N 54°35' E 011°05'510.1
2018-Feb-10 14:00N 54°36' E 010°57'510.1
2018-Feb-10 13:31N 54°39' E 010°50'4 8.9
2018-Feb-10 13:00N 54°43' E 010°47'5 9.4
2018-Feb-10 12:30N 54°48' E 010°49'5 9.1
2018-Feb-10 12:01N 54°52' E 010°50'5 9.1
2018-Feb-10 11:31N 54°56' E 010°53'5 9.2
2018-Feb-10 11:01N 54°60' E 010°59'5 9.4
2018-Feb-10 10:31N 55°04' E 010°60'5 9.7
2018-Feb-10 10:00N 55°09' E 010°60'5 9.4
2018-Feb-10 09:30N 55°12' E 011°06'5 9.4
2018-Feb-10 09:00N 55°17' E 011°03'7 9.1
2018-Feb-10 08:17N 55°23' E 011°01'40 8.6
2018-Feb-10 03:38N 56°03' E 011°06'510.3
2018-Feb-10 03:11N 56°07' E 011°10'410.5
2018-Feb-10 02:50N 56°10' E 011°15'10 9.9
2018-Feb-10 01:49N 56°18' E 011°24'47 8.8
2018-Feb-09 20:30N 57°04' E 011°39'5 9.2
2018-Feb-09 20:00N 57°09' E 011°36'5 9.2
2018-Feb-09 19:30N 57°13' E 011°33'9 9.4
2018-Feb-09 18:31N 57°22' E 011°27'5 9.4
2018-Feb-09 18:01N 57°26' E 011°23'4 8.8
2018-Feb-09 17:30N 57°30' E 011°19'9 9.3
2018-Feb-09 16:31N 57°36' E 011°06'5 9.6
2018-Feb-09 16:01N 57°39' E 010°60'5 9.2
2018-Feb-09 15:31N 57°43' E 010°54'5 9.3
2018-Feb-09 15:00N 57°46' E 010°47'5 9.2
2018-Feb-09 14:30N 57°47' E 010°39'510.1
2018-Feb-09 14:00N 57°46' E 010°30'  

Dump ship's entire track history